sensor_id;sensor_type;location;lat;lon;timestamp;temperature;humidity
56268;DHT22;42175;46.930;9.532;2023-04-25T00:01:06;22.40;43.60
56268;DHT22;42175;46.930;9.532;2023-04-25T00:03:32;22.40;43.60
56268;DHT22;42175;46.930;9.532;2023-04-25T00:05:59;22.40;43.60
56268;DHT22;42175;46.930;9.532;2023-04-25T00:08:29;22.40;43.60
56268;DHT22;42175;46.930;9.532;2023-04-25T00:10:55;22.40;43.50
56268;DHT22;42175;46.930;9.532;2023-04-25T00:13:20;22.40;43.60
56268;DHT22;42175;46.930;9.532;2023-04-25T00:15:47;22.40;43.50
56268;DHT22;42175;46.930;9.532;2023-04-25T00:18:14;22.40;43.60
56268;DHT22;42175;46.930;9.532;2023-04-25T00:20:40;22.40;43.60
56268;DHT22;42175;46.930;9.532;2023-04-25T00:23:09;22.40;43.50
56268;DHT22;42175;46.930;9.532;2023-04-25T00:25:35;22.50;43.60
56268;DHT22;42175;46.930;9.532;2023-04-25T00:28:01;22.40;43.40
56268;DHT22;42175;46.930;9.532;2023-04-25T00:30:27;22.50;43.50
56268;DHT22;42175;46.930;9.532;2023-04-25T00:32:53;22.50;43.50
56268;DHT22;42175;46.930;9.532;2023-04-25T00:35:18;22.50;43.50
56268;DHT22;42175;46.930;9.532;2023-04-25T00:37:44;22.50;43.60
56268;DHT22;42175;46.930;9.532;2023-04-25T00:40:10;22.50;43.50
56268;DHT22;42175;46.930;9.532;2023-04-25T00:42:37;22.50;43.50
56268;DHT22;42175;46.930;9.532;2023-04-25T00:45:05;22.50;43.50
56268;DHT22;42175;46.930;9.532;2023-04-25T00:47:33;22.50;43.50
56268;DHT22;42175;46.930;9.532;2023-04-25T00:49:58;22.50;43.50
56268;DHT22;42175;46.930;9.532;2023-04-25T00:52:24;22.50;43.50
56268;DHT22;42175;46.930;9.532;2023-04-25T00:54:50;22.50;43.50
56268;DHT22;42175;46.930;9.532;2023-04-25T00:57:16;22.50;43.50
56268;DHT22;42175;46.930;9.532;2023-04-25T00:59:45;22.50;43.50
56268;DHT22;42175;46.930;9.532;2023-04-25T01:02:12;22.50;43.40
56268;DHT22;42175;46.930;9.532;2023-04-25T01:04:39;22.50;43.40
56268;DHT22;42175;46.930;9.532;2023-04-25T01:07:05;22.50;43.40
56268;DHT22;42175;46.930;9.532;2023-04-25T01:09:30;22.50;43.40
56268;DHT22;42175;46.930;9.532;2023-04-25T01:11:59;22.50;43.40
56268;DHT22;42175;46.930;9.532;2023-04-25T01:14:26;22.50;43.40
56268;DHT22;42175;46.930;9.532;2023-04-25T01:16:52;22.50;43.30
56268;DHT22;42175;46.930;9.532;2023-04-25T01:19:19;22.50;43.30
56268;DHT22;42175;46.930;9.532;2023-04-25T01:21:45;22.50;43.30
56268;DHT22;42175;46.930;9.532;2023-04-25T01:24:12;22.50;43.20
56268;DHT22;42175;46.930;9.532;2023-04-25T01:26:38;22.60;43.30
56268;DHT22;42175;46.930;9.532;2023-04-25T01:29:07;22.50;43.30
56268;DHT22;42175;46.930;9.532;2023-04-25T01:31:34;22.50;43.20
56268;DHT22;42175;46.930;9.532;2023-04-25T01:34:00;22.50;43.80
56268;DHT22;42175;46.930;9.532;2023-04-25T01:36:26;22.60;43.30
56268;DHT22;42175;46.930;9.532;2023-04-25T01:38:52;22.60;43.30
56268;DHT22;42175;46.930;9.532;2023-04-25T01:41:19;22.50;43.10
56268;DHT22;42175;46.930;9.532;2023-04-25T01:43:45;22.60;43.20
56268;DHT22;42175;46.930;9.532;2023-04-25T01:46:11;22.50;43.10
56268;DHT22;42175;46.930;9.532;2023-04-25T01:48:37;22.50;43.10
56268;DHT22;42175;46.930;9.532;2023-04-25T01:51:03;22.60;43.20
56268;DHT22;42175;46.930;9.532;2023-04-25T01:53:29;22.60;43.20
56268;DHT22;42175;46.930;9.532;2023-04-25T01:55:55;22.50;43.10
56268;DHT22;42175;46.930;9.532;2023-04-25T01:58:21;22.60;43.20
56268;DHT22;42175;46.930;9.532;2023-04-25T02:00:47;22.50;43.10
56268;DHT22;42175;46.930;9.532;2023-04-25T02:03:12;22.60;43.10
56268;DHT22;42175;46.930;9.532;2023-04-25T02:05:38;22.60;43.10
56268;DHT22;42175;46.930;9.532;2023-04-25T02:08:08;22.60;43.00
56268;DHT22;42175;46.930;9.532;2023-04-25T02:10:35;22.50;42.90
56268;DHT22;42175;46.930;9.532;2023-04-25T02:13:01;22.60;42.90
56268;DHT22;42175;46.930;9.532;2023-04-25T02:15:26;22.60;43.00
56268;DHT22;42175;46.930;9.532;2023-04-25T02:17:52;22.50;42.80
56268;DHT22;42175;46.930;9.532;2023-04-25T02:20:22;22.60;42.90
56268;DHT22;42175;46.930;9.532;2023-04-25T02:22:48;22.50;42.90
56268;DHT22;42175;46.930;9.532;2023-04-25T02:25:16;22.60;43.50
56268;DHT22;42175;46.930;9.532;2023-04-25T02:27:43;22.60;42.90
56268;DHT22;42175;46.930;9.532;2023-04-25T02:30:09;22.50;42.80
56268;DHT22;42175;46.930;9.532;2023-04-25T02:32:35;22.60;42.90
56268;DHT22;42175;46.930;9.532;2023-04-25T02:35:01;22.50;42.80
56268;DHT22;42175;46.930;9.532;2023-04-25T02:37:34;22.50;42.70
56268;DHT22;42175;46.930;9.532;2023-04-25T02:40:00;22.50;42.80
56268;DHT22;42175;46.930;9.532;2023-04-25T02:42:27;22.50;42.70
56268;DHT22;42175;46.930;9.532;2023-04-25T02:44:53;22.50;42.80
56268;DHT22;42175;46.930;9.532;2023-04-25T02:47:19;22.50;42.70
56268;DHT22;42175;46.930;9.532;2023-04-25T02:49:45;22.50;42.70
56268;DHT22;42175;46.930;9.532;2023-04-25T02:52:11;22.50;42.60
56268;DHT22;42175;46.930;9.532;2023-04-25T02:54:38;22.50;42.60
56268;DHT22;42175;46.930;9.532;2023-04-25T02:57:04;22.50;42.60
56268;DHT22;42175;46.930;9.532;2023-04-25T02:59:30;22.60;42.60
56268;DHT22;42175;46.930;9.532;2023-04-25T03:01:56;22.60;42.60
56268;DHT22;42175;46.930;9.532;2023-04-25T03:04:21;22.60;42.60
56268;DHT22;42175;46.930;9.532;2023-04-25T03:06:49;22.50;42.50
56268;DHT22;42175;46.930;9.532;2023-04-25T03:09:16;22.60;42.60
56268;DHT22;42175;46.930;9.532;2023-04-25T03:11:41;22.50;42.50
56268;DHT22;42175;46.930;9.532;2023-04-25T03:14:07;22.60;42.60
56268;DHT22;42175;46.930;9.532;2023-04-25T03:16:33;22.50;42.60
56268;DHT22;42175;46.930;9.532;2023-04-25T03:18:59;22.50;42.50
56268;DHT22;42175;46.930;9.532;2023-04-25T03:21:25;22.50;42.50
56268;DHT22;42175;46.930;9.532;2023-04-25T03:23:51;22.50;42.50
56268;DHT22;42175;46.930;9.532;2023-04-25T03:26:17;22.60;42.50
56268;DHT22;42175;46.930;9.532;2023-04-25T03:28:43;22.50;42.50
56268;DHT22;42175;46.930;9.532;2023-04-25T03:31:09;22.60;42.50
56268;DHT22;42175;46.930;9.532;2023-04-25T03:33:34;22.60;42.60
56268;DHT22;42175;46.930;9.532;2023-04-25T03:36:00;22.50;42.50
56268;DHT22;42175;46.930;9.532;2023-04-25T03:38:26;22.50;42.60
56268;DHT22;42175;46.930;9.532;2023-04-25T03:40:52;22.60;42.60
56268;DHT22;42175;46.930;9.532;2023-04-25T03:43:18;22.60;42.50
56268;DHT22;42175;46.930;9.532;2023-04-25T03:45:44;22.60;42.50
56268;DHT22;42175;46.930;9.532;2023-04-25T03:48:09;22.60;42.40
56268;DHT22;42175;46.930;9.532;2023-04-25T03:50:35;22.60;42.40
56268;DHT22;42175;46.930;9.532;2023-04-25T03:53:01;22.50;42.30
56268;DHT22;42175;46.930;9.532;2023-04-25T03:55:26;22.60;42.40
56268;DHT22;42175;46.930;9.532;2023-04-25T03:57:52;22.60;42.40
56268;DHT22;42175;46.930;9.532;2023-04-25T04:00:18;22.60;42.40
56268;DHT22;42175;46.930;9.532;2023-04-25T04:02:43;22.60;42.30
56268;DHT22;42175;46.930;9.532;2023-04-25T04:05:09;22.60;42.30
56268;DHT22;42175;46.930;9.532;2023-04-25T04:07:35;22.60;42.40
56268;DHT22;42175;46.930;9.532;2023-04-25T04:10:06;22.60;42.50
56268;DHT22;42175;46.930;9.532;2023-04-25T04:12:33;22.60;42.40
56268;DHT22;42175;46.930;9.532;2023-04-25T04:14:59;22.60;42.30
56268;DHT22;42175;46.930;9.532;2023-04-25T04:17:25;22.50;42.20
56268;DHT22;42175;46.930;9.532;2023-04-25T04:19:51;22.60;42.30
56268;DHT22;42175;46.930;9.532;2023-04-25T04:22:16;22.60;42.30
56268;DHT22;42175;46.930;9.532;2023-04-25T04:24:42;22.60;42.30
56268;DHT22;42175;46.930;9.532;2023-04-25T04:27:09;22.60;42.30
56268;DHT22;42175;46.930;9.532;2023-04-25T04:29:35;22.60;42.30
56268;DHT22;42175;46.930;9.532;2023-04-25T04:32:02;22.60;42.20
56268;DHT22;42175;46.930;9.532;2023-04-25T04:34:29;22.60;42.20
56268;DHT22;42175;46.930;9.532;2023-04-25T04:36:55;22.60;42.20
56268;DHT22;42175;46.930;9.532;2023-04-25T04:39:21;22.60;42.20
56268;DHT22;42175;46.930;9.532;2023-04-25T04:41:47;22.60;42.20
56268;DHT22;42175;46.930;9.532;2023-04-25T04:44:13;22.60;42.20
56268;DHT22;42175;46.930;9.532;2023-04-25T04:46:40;22.60;42.10
56268;DHT22;42175;46.930;9.532;2023-04-25T04:49:10;22.60;42.10
56268;DHT22;42175;46.930;9.532;2023-04-25T04:51:37;22.60;42.10
56268;DHT22;42175;46.930;9.532;2023-04-25T04:54:03;22.60;42.10
56268;DHT22;42175;46.930;9.532;2023-04-25T04:56:30;22.60;42.10
56268;DHT22;42175;46.930;9.532;2023-04-25T04:58:57;22.60;42.10
56268;DHT22;42175;46.930;9.532;2023-04-25T05:01:23;22.60;42.10
56268;DHT22;42175;46.930;9.532;2023-04-25T05:03:49;22.60;42.40
56268;DHT22;42175;46.930;9.532;2023-04-25T05:06:17;22.60;42.10
56268;DHT22;42175;46.930;9.532;2023-04-25T05:08:43;22.60;42.00
56268;DHT22;42175;46.930;9.532;2023-04-25T05:11:08;22.60;42.00
56268;DHT22;42175;46.930;9.532;2023-04-25T05:13:34;22.60;42.00
56268;DHT22;42175;46.930;9.532;2023-04-25T05:16:00;22.60;42.10
56268;DHT22;42175;46.930;9.532;2023-04-25T05:18:26;22.60;42.10
56268;DHT22;42175;46.930;9.532;2023-04-25T05:20:51;22.60;42.00
56268;DHT22;42175;46.930;9.532;2023-04-25T05:23:17;22.60;42.10
56268;DHT22;42175;46.930;9.532;2023-04-25T05:25:43;22.60;42.10
56268;DHT22;42175;46.930;9.532;2023-04-25T05:28:08;22.60;42.10
56268;DHT22;42175;46.930;9.532;2023-04-25T05:30:35;22.60;42.20
56268;DHT22;42175;46.930;9.532;2023-04-25T05:33:01;22.60;42.30
56268;DHT22;42175;46.930;9.532;2023-04-25T05:35:27;22.60;42.40
56268;DHT22;42175;46.930;9.532;2023-04-25T05:37:52;22.60;42.30
56268;DHT22;42175;46.930;9.532;2023-04-25T05:40:18;22.70;42.30
56268;DHT22;42175;46.930;9.532;2023-04-25T05:42:44;22.60;42.20
56268;DHT22;42175;46.930;9.532;2023-04-25T05:45:10;22.60;42.20
56268;DHT22;42175;46.930;9.532;2023-04-25T05:47:35;22.60;42.20
56268;DHT22;42175;46.930;9.532;2023-04-25T05:50:01;22.60;42.20
56268;DHT22;42175;46.930;9.532;2023-04-25T05:52:27;22.60;42.20
56268;DHT22;42175;46.930;9.532;2023-04-25T05:54:53;22.60;42.30
56268;DHT22;42175;46.930;9.532;2023-04-25T05:57:26;22.60;42.30
56268;DHT22;42175;46.930;9.532;2023-04-25T05:59:52;22.60;42.40
56268;DHT22;42175;46.930;9.532;2023-04-25T06:02:19;22.60;42.30
56268;DHT22;42175;46.930;9.532;2023-04-25T06:04:46;22.60;42.30
56268;DHT22;42175;46.930;9.532;2023-04-25T06:07:12;22.60;42.30
56268;DHT22;42175;46.930;9.532;2023-04-25T06:09:38;22.60;42.30
56268;DHT22;42175;46.930;9.532;2023-04-25T06:12:06;22.70;42.30
56268;DHT22;42175;46.930;9.532;2023-04-25T06:14:33;22.70;42.30
56268;DHT22;42175;46.930;9.532;2023-04-25T06:16:59;22.60;42.20
56268;DHT22;42175;46.930;9.532;2023-04-25T06:19:25;22.70;42.20
56268;DHT22;42175;46.930;9.532;2023-04-25T06:21:50;22.70;42.20
56268;DHT22;42175;46.930;9.532;2023-04-25T06:24:16;22.70;42.20
56268;DHT22;42175;46.930;9.532;2023-04-25T06:26:42;22.60;42.10
56268;DHT22;42175;46.930;9.532;2023-04-25T06:29:07;22.60;42.10
56268;DHT22;42175;46.930;9.532;2023-04-25T06:31:33;22.70;42.20
56268;DHT22;42175;46.930;9.532;2023-04-25T06:33:59;22.60;42.10
56268;DHT22;42175;46.930;9.532;2023-04-25T06:36:24;22.60;42.00
56268;DHT22;42175;46.930;9.532;2023-04-25T06:38:51;22.60;42.00
56268;DHT22;42175;46.930;9.532;2023-04-25T06:41:18;22.60;42.00
56268;DHT22;42175;46.930;9.532;2023-04-25T06:43:44;22.60;43.30
56268;DHT22;42175;46.930;9.532;2023-04-25T06:46:10;22.70;45.80
56268;DHT22;42175;46.930;9.532;2023-04-25T06:48:36;22.70;45.30
56268;DHT22;42175;46.930;9.532;2023-04-25T06:51:02;22.70;43.90
56268;DHT22;42175;46.930;9.532;2023-04-25T06:53:28;22.70;43.50
56268;DHT22;42175;46.930;9.532;2023-04-25T06:55:53;22.70;43.90
56268;DHT22;42175;46.930;9.532;2023-04-25T06:58:19;22.70;44.20
56268;DHT22;42175;46.930;9.532;2023-04-25T07:00:45;22.70;44.20
56268;DHT22;42175;46.930;9.532;2023-04-25T07:03:10;22.70;44.20
56268;DHT22;42175;46.930;9.532;2023-04-25T07:05:36;22.70;43.80
56268;DHT22;42175;46.930;9.532;2023-04-25T07:08:02;22.70;43.70
56268;DHT22;42175;46.930;9.532;2023-04-25T07:10:28;22.70;43.70
56268;DHT22;42175;46.930;9.532;2023-04-25T07:12:54;22.70;43.70
56268;DHT22;42175;46.930;9.532;2023-04-25T07:15:20;22.70;43.80
56268;DHT22;42175;46.930;9.532;2023-04-25T07:17:45;22.70;43.60
56268;DHT22;42175;46.930;9.532;2023-04-25T07:20:11;22.60;41.10
56268;DHT22;42175;46.930;9.532;2023-04-25T07:22:37;22.60;42.50
56268;DHT22;42175;46.930;9.532;2023-04-25T07:25:03;22.60;42.60
56268;DHT22;42175;46.930;9.532;2023-04-25T07:27:30;22.60;43.10
56268;DHT22;42175;46.930;9.532;2023-04-25T07:29:57;22.60;43.20
56268;DHT22;42175;46.930;9.532;2023-04-25T07:32:23;22.60;43.40
56268;DHT22;42175;46.930;9.532;2023-04-25T07:34:48;22.70;43.60
56268;DHT22;42175;46.930;9.532;2023-04-25T07:37:14;22.70;43.90
56268;DHT22;42175;46.930;9.532;2023-04-25T07:39:40;22.70;43.80
56268;DHT22;42175;46.930;9.532;2023-04-25T07:42:06;22.80;43.70
56268;DHT22;42175;46.930;9.532;2023-04-25T07:44:34;22.80;44.00
56268;DHT22;42175;46.930;9.532;2023-04-25T07:47:08;22.80;43.90
56268;DHT22;42175;46.930;9.532;2023-04-25T07:49:37;22.70;43.50
56268;DHT22;42175;46.930;9.532;2023-04-25T07:52:04;22.70;42.90
56268;DHT22;42175;46.930;9.532;2023-04-25T07:54:31;22.70;42.30
56268;DHT22;42175;46.930;9.532;2023-04-25T07:56:58;22.70;42.00
56268;DHT22;42175;46.930;9.532;2023-04-25T07:59:24;22.70;41.50
56268;DHT22;42175;46.930;9.532;2023-04-25T08:01:50;22.60;41.10
56268;DHT22;42175;46.930;9.532;2023-04-25T08:04:16;22.70;41.80
56268;DHT22;42175;46.930;9.532;2023-04-25T08:06:42;22.70;42.10
56268;DHT22;42175;46.930;9.532;2023-04-25T08:09:09;22.80;42.40
56268;DHT22;42175;46.930;9.532;2023-04-25T08:11:36;22.80;42.40
56268;DHT22;42175;46.930;9.532;2023-04-25T08:14:01;22.80;42.40
56268;DHT22;42175;46.930;9.532;2023-04-25T08:16:27;22.80;42.40
56268;DHT22;42175;46.930;9.532;2023-04-25T08:18:54;22.80;42.40
56268;DHT22;42175;46.930;9.532;2023-04-25T08:21:20;22.80;42.40
56268;DHT22;42175;46.930;9.532;2023-04-25T08:23:45;22.70;42.20
56268;DHT22;42175;46.930;9.532;2023-04-25T08:26:11;22.80;42.30
56268;DHT22;42175;46.930;9.532;2023-04-25T08:28:37;22.80;42.30
56268;DHT22;42175;46.930;9.532;2023-04-25T08:31:03;22.80;42.30
56268;DHT22;42175;46.930;9.532;2023-04-25T08:33:29;22.80;42.20
56268;DHT22;42175;46.930;9.532;2023-04-25T08:35:55;22.80;42.20
56268;DHT22;42175;46.930;9.532;2023-04-25T08:38:21;22.80;42.20
56268;DHT22;42175;46.930;9.532;2023-04-25T08:40:50;22.80;42.30
56268;DHT22;42175;46.930;9.532;2023-04-25T08:43:19;22.70;42.20
56268;DHT22;42175;46.930;9.532;2023-04-25T08:45:46;22.80;42.30
56268;DHT22;42175;46.930;9.532;2023-04-25T08:48:16;22.80;42.30
56268;DHT22;42175;46.930;9.532;2023-04-25T08:53:14;22.80;42.40
56268;DHT22;42175;46.930;9.532;2023-04-25T08:55:43;22.80;42.30
56268;DHT22;42175;46.930;9.532;2023-04-25T08:58:11;22.80;42.30
56268;DHT22;42175;46.930;9.532;2023-04-25T09:00:37;22.80;42.30
56268;DHT22;42175;46.930;9.532;2023-04-25T09:03:03;22.80;42.30
56268;DHT22;42175;46.930;9.532;2023-04-25T09:05:29;22.80;42.40
56268;DHT22;42175;46.930;9.532;2023-04-25T09:07:54;22.80;42.40
56268;DHT22;42175;46.930;9.532;2023-04-25T09:10:22;22.80;42.40
56268;DHT22;42175;46.930;9.532;2023-04-25T09:15:28;22.80;42.30
56268;DHT22;42175;46.930;9.532;2023-04-25T09:17:58;22.80;42.10
56268;DHT22;42175;46.930;9.532;2023-04-25T09:20:24;22.80;42.10
56268;DHT22;42175;46.930;9.532;2023-04-25T09:23:01;22.90;42.10
56268;DHT22;42175;46.930;9.532;2023-04-25T09:25:34;22.80;42.10
56268;DHT22;42175;46.930;9.532;2023-04-25T09:28:04;22.80;42.10
56268;DHT22;42175;46.930;9.532;2023-04-25T09:30:31;22.80;42.10
56268;DHT22;42175;46.930;9.532;2023-04-25T09:33:07;22.80;42.10
56268;DHT22;42175;46.930;9.532;2023-04-25T09:35:38;22.80;42.10
56268;DHT22;42175;46.930;9.532;2023-04-25T09:38:14;22.80;42.10
56268;DHT22;42175;46.930;9.532;2023-04-25T09:40:45;22.80;42.10
56268;DHT22;42175;46.930;9.532;2023-04-25T09:43:24;22.80;42.10
56268;DHT22;42175;46.930;9.532;2023-04-25T09:45:51;22.80;42.10
56268;DHT22;42175;46.930;9.532;2023-04-25T09:48:19;22.80;42.20
56268;DHT22;42175;46.930;9.532;2023-04-25T09:51:12;22.80;42.10
56268;DHT22;42175;46.930;9.532;2023-04-25T09:53:44;22.80;41.90
56268;DHT22;42175;46.930;9.532;2023-04-25T09:56:12;22.80;41.90
56268;DHT22;42175;46.930;9.532;2023-04-25T09:58:39;22.80;41.80
56268;DHT22;42175;46.930;9.532;2023-04-25T10:01:07;22.80;41.70
56268;DHT22;42175;46.930;9.532;2023-04-25T10:03:35;22.80;41.60
56268;DHT22;42175;46.930;9.532;2023-04-25T10:06:03;22.80;41.60
56268;DHT22;42175;46.930;9.532;2023-04-25T10:08:37;22.80;41.60
56268;DHT22;42175;46.930;9.532;2023-04-25T10:11:06;22.80;41.60
56268;DHT22;42175;46.930;9.532;2023-04-25T10:13:33;22.80;41.50
56268;DHT22;42175;46.930;9.532;2023-04-25T10:16:01;22.80;41.50
56268;DHT22;42175;46.930;9.532;2023-04-25T10:18:28;22.80;41.50
56268;DHT22;42175;46.930;9.532;2023-04-25T10:21:02;22.80;41.50
56268;DHT22;42175;46.930;9.532;2023-04-25T10:23:29;22.90;41.60
56268;DHT22;42175;46.930;9.532;2023-04-25T10:25:55;22.90;41.50
56268;DHT22;42175;46.930;9.532;2023-04-25T10:28:21;22.90;41.50
56268;DHT22;42175;46.930;9.532;2023-04-25T10:31:03;22.80;41.40
56268;DHT22;42175;46.930;9.532;2023-04-25T10:36:21;22.80;41.40
56268;DHT22;42175;46.930;9.532;2023-04-25T10:38:49;22.90;41.30
56268;DHT22;42175;46.930;9.532;2023-04-25T10:41:18;22.90;41.30
56268;DHT22;42175;46.930;9.532;2023-04-25T10:43:46;22.80;41.30
56268;DHT22;42175;46.930;9.532;2023-04-25T10:46:26;22.90;41.40
56268;DHT22;42175;46.930;9.532;2023-04-25T10:48:54;22.90;41.30
56268;DHT22;42175;46.930;9.532;2023-04-25T10:51:23;22.90;41.20
56268;DHT22;42175;46.930;9.532;2023-04-25T10:56:22;22.90;41.30
56268;DHT22;42175;46.930;9.532;2023-04-25T10:58:49;22.90;41.20
56268;DHT22;42175;46.930;9.532;2023-04-25T11:01:24;22.90;41.20
56268;DHT22;42175;46.930;9.532;2023-04-25T11:03:57;22.80;41.20
56268;DHT22;42175;46.930;9.532;2023-04-25T11:06:34;22.90;41.40
56268;DHT22;42175;46.930;9.532;2023-04-25T11:09:03;22.90;41.30
56268;DHT22;42175;46.930;9.532;2023-04-25T11:11:36;22.90;41.30
56268;DHT22;42175;46.930;9.532;2023-04-25T11:14:02;22.90;41.20
56268;DHT22;42175;46.930;9.532;2023-04-25T11:16:28;22.90;41.20
56268;DHT22;42175;46.930;9.532;2023-04-25T11:18:53;22.90;41.30
56268;DHT22;42175;46.930;9.532;2023-04-25T11:21:22;22.90;41.40
56268;DHT22;42175;46.930;9.532;2023-04-25T11:23:48;22.90;41.40
56268;DHT22;42175;46.930;9.532;2023-04-25T11:26:14;22.90;40.90
56268;DHT22;42175;46.930;9.532;2023-04-25T11:28:40;22.90;41.10
56268;DHT22;42175;46.930;9.532;2023-04-25T11:31:06;22.90;41.10
56268;DHT22;42175;46.930;9.532;2023-04-25T11:33:32;22.90;40.70
56268;DHT22;42175;46.930;9.532;2023-04-25T11:35:58;22.90;40.10
56268;DHT22;42175;46.930;9.532;2023-04-25T11:38:25;22.80;39.40
56268;DHT22;42175;46.930;9.532;2023-04-25T11:40:52;22.80;38.80
56268;DHT22;42175;46.930;9.532;2023-04-25T11:43:21;22.80;38.30
56268;DHT22;42175;46.930;9.532;2023-04-25T11:45:48;22.80;38.00
56268;DHT22;42175;46.930;9.532;2023-04-25T11:48:14;22.80;37.40
56268;DHT22;42175;46.930;9.532;2023-04-25T11:50:40;22.80;37.50
56268;DHT22;42175;46.930;9.532;2023-04-25T11:53:06;22.80;37.80
56268;DHT22;42175;46.930;9.532;2023-04-25T11:55:33;22.80;37.80
56268;DHT22;42175;46.930;9.532;2023-04-25T11:58:00;22.80;37.40
56268;DHT22;42175;46.930;9.532;2023-04-25T12:00:26;22.80;37.10
56268;DHT22;42175;46.930;9.532;2023-04-25T12:02:54;22.80;37.70
56268;DHT22;42175;46.930;9.532;2023-04-25T12:05:24;22.80;37.90
56268;DHT22;42175;46.930;9.532;2023-04-25T12:07:50;22.80;37.60
56268;DHT22;42175;46.930;9.532;2023-04-25T12:10:18;22.80;37.20
56268;DHT22;42175;46.930;9.532;2023-04-25T12:12:45;22.80;37.10
56268;DHT22;42175;46.930;9.532;2023-04-25T12:17:42;22.80;36.80
56268;DHT22;42175;46.930;9.532;2023-04-25T12:20:15;22.70;36.70
56268;DHT22;42175;46.930;9.532;2023-04-25T12:22:45;22.70;36.50
56268;DHT22;42175;46.930;9.532;2023-04-25T12:25:40;22.70;37.20
56268;DHT22;42175;46.930;9.532;2023-04-25T12:28:15;22.70;37.80
56268;DHT22;42175;46.930;9.532;2023-04-25T12:33:31;22.70;38.00
56268;DHT22;42175;46.930;9.532;2023-04-25T12:35:58;22.70;38.00
56268;DHT22;42175;46.930;9.532;2023-04-25T12:38:26;22.70;37.80
56268;DHT22;42175;46.930;9.532;2023-04-25T12:40:53;22.70;37.00
56268;DHT22;42175;46.930;9.532;2023-04-25T12:43:19;22.70;36.50
56268;DHT22;42175;46.930;9.532;2023-04-25T12:45:50;22.70;36.10
56268;DHT22;42175;46.930;9.532;2023-04-25T12:48:17;22.60;36.50
56268;DHT22;42175;46.930;9.532;2023-04-25T12:50:42;22.70;36.60
56268;DHT22;42175;46.930;9.532;2023-04-25T12:53:09;22.70;36.60
56268;DHT22;42175;46.930;9.532;2023-04-25T12:55:35;22.70;36.20
56268;DHT22;42175;46.930;9.532;2023-04-25T12:58:00;22.60;36.00
56268;DHT22;42175;46.930;9.532;2023-04-25T13:00:26;22.60;35.60
56268;DHT22;42175;46.930;9.532;2023-04-25T13:02:52;22.60;35.10
56268;DHT22;42175;46.930;9.532;2023-04-25T13:05:18;22.60;35.10
56268;DHT22;42175;46.930;9.532;2023-04-25T13:07:44;22.60;35.10
56268;DHT22;42175;46.930;9.532;2023-04-25T13:10:09;22.60;34.90
56268;DHT22;42175;46.930;9.532;2023-04-25T13:12:36;22.60;35.00
56268;DHT22;42175;46.930;9.532;2023-04-25T13:15:01;22.60;35.00
56268;DHT22;42175;46.930;9.532;2023-04-25T13:17:27;22.60;35.00
56268;DHT22;42175;46.930;9.532;2023-04-25T13:19:53;22.60;35.10
56268;DHT22;42175;46.930;9.532;2023-04-25T13:22:18;22.60;35.20
56268;DHT22;42175;46.930;9.532;2023-04-25T13:24:46;22.60;35.20
56268;DHT22;42175;46.930;9.532;2023-04-25T13:27:13;22.60;35.40
56268;DHT22;42175;46.930;9.532;2023-04-25T13:29:38;22.60;36.10
56268;DHT22;42175;46.930;9.532;2023-04-25T13:32:06;22.60;36.30
56268;DHT22;42175;46.930;9.532;2023-04-25T13:34:32;22.60;36.50
56268;DHT22;42175;46.930;9.532;2023-04-25T13:36:57;22.70;36.70
56268;DHT22;42175;46.930;9.532;2023-04-25T13:39:23;22.70;36.70
56268;DHT22;42175;46.930;9.532;2023-04-25T13:41:49;22.70;36.80
56268;DHT22;42175;46.930;9.532;2023-04-25T13:44:15;22.70;36.80
56268;DHT22;42175;46.930;9.532;2023-04-25T13:46:41;22.70;36.80
56268;DHT22;42175;46.930;9.532;2023-04-25T13:49:07;22.70;36.80
56268;DHT22;42175;46.930;9.532;2023-04-25T13:51:33;22.70;36.90
56268;DHT22;42175;46.930;9.532;2023-04-25T13:53:58;22.70;36.60
56268;DHT22;42175;46.930;9.532;2023-04-25T13:56:24;22.70;35.90
56268;DHT22;42175;46.930;9.532;2023-04-25T13:58:50;22.60;35.80
56268;DHT22;42175;46.930;9.532;2023-04-25T14:01:17;22.60;35.90
56268;DHT22;42175;46.930;9.532;2023-04-25T14:03:44;22.70;36.00
56268;DHT22;42175;46.930;9.532;2023-04-25T14:06:10;22.70;36.30
56268;DHT22;42175;46.930;9.532;2023-04-25T14:08:36;22.70;36.50
56268;DHT22;42175;46.930;9.532;2023-04-25T14:11:02;22.80;36.60
56268;DHT22;42175;46.930;9.532;2023-04-25T14:13:28;22.80;36.10
56268;DHT22;42175;46.930;9.532;2023-04-25T14:15:54;22.70;36.80
56268;DHT22;42175;46.930;9.532;2023-04-25T14:18:20;22.70;36.70
56268;DHT22;42175;46.930;9.532;2023-04-25T14:20:46;22.70;36.80
56268;DHT22;42175;46.930;9.532;2023-04-25T14:23:12;22.70;36.70
56268;DHT22;42175;46.930;9.532;2023-04-25T14:25:37;22.70;36.90
56268;DHT22;42175;46.930;9.532;2023-04-25T14:28:03;22.70;37.00
56268;DHT22;42175;46.930;9.532;2023-04-25T14:30:30;22.70;37.10
56268;DHT22;42175;46.930;9.532;2023-04-25T14:32:55;22.70;37.10
56268;DHT22;42175;46.930;9.532;2023-04-25T14:35:21;22.60;36.90
56268;DHT22;42175;46.930;9.532;2023-04-25T14:37:47;22.70;37.00
56268;DHT22;42175;46.930;9.532;2023-04-25T14:40:13;22.70;37.00
56268;DHT22;42175;46.930;9.532;2023-04-25T14:42:41;22.70;37.00
56268;DHT22;42175;46.930;9.532;2023-04-25T14:45:08;22.70;36.90
56268;DHT22;42175;46.930;9.532;2023-04-25T14:47:37;22.70;36.70
56268;DHT22;42175;46.930;9.532;2023-04-25T14:50:03;22.70;36.80
56268;DHT22;42175;46.930;9.532;2023-04-25T14:52:30;22.70;36.60
56268;DHT22;42175;46.930;9.532;2023-04-25T14:54:56;22.70;36.40
56268;DHT22;42175;46.930;9.532;2023-04-25T14:57:22;22.70;36.20
56268;DHT22;42175;46.930;9.532;2023-04-25T14:59:48;22.70;36.30
56268;DHT22;42175;46.930;9.532;2023-04-25T15:02:13;22.70;36.40
56268;DHT22;42175;46.930;9.532;2023-04-25T15:04:39;22.70;36.30
56268;DHT22;42175;46.930;9.532;2023-04-25T15:07:05;22.70;36.60
56268;DHT22;42175;46.930;9.532;2023-04-25T15:09:30;22.70;36.60
56268;DHT22;42175;46.930;9.532;2023-04-25T15:11:57;22.70;36.70
56268;DHT22;42175;46.930;9.532;2023-04-25T15:14:23;22.70;36.80
56268;DHT22;42175;46.930;9.532;2023-04-25T15:16:48;22.70;36.90
56268;DHT22;42175;46.930;9.532;2023-04-25T15:19:14;22.80;37.10
56268;DHT22;42175;46.930;9.532;2023-04-25T15:21:40;22.70;37.00
56268;DHT22;42175;46.930;9.532;2023-04-25T15:24:06;22.80;36.90
56268;DHT22;42175;46.930;9.532;2023-04-25T15:26:33;22.80;36.90
56268;DHT22;42175;46.930;9.532;2023-04-25T15:28:58;22.80;37.20
56268;DHT22;42175;46.930;9.532;2023-04-25T15:31:24;22.80;37.20
56268;DHT22;42175;46.930;9.532;2023-04-25T15:33:50;22.70;37.10
56268;DHT22;42175;46.930;9.532;2023-04-25T15:36:16;22.80;37.10
56268;DHT22;42175;46.930;9.532;2023-04-25T15:38:44;22.80;37.20
56268;DHT22;42175;46.930;9.532;2023-04-25T15:41:09;22.70;37.10
56268;DHT22;42175;46.930;9.532;2023-04-25T15:43:36;22.80;37.20